< < Back
Terminal Aerodrome Forecast


Current Version              Previous Versions:   1  2  3  4  5  6  7  8  9  

Terminal Aerodrome Forecast

731
FTUS44 KMOB 301145
TAFMOB
TAF
KMOB 301145Z 3012/0112 23005KT 4SM BR VCSH FEW050 SCT250
     FM301500 24013G18KT P6SM VCTS SCT035CB BKN100
      TEMPO 3020/3024 3SM TSRA BKN030CB
     FM010300 21005KT P6SM VCSH SCT030=



Latest METAR

829
SAUS80 KWBC 302300
MTRMOB
METAR KMOB 302256Z 21005KT 10SM FEW100 BKN250 28/21 A3005 RMK AO2 SLP173
T02780211


USA.gov is the U.S. government's official web portal to all federal, state and local government web resources and services.